PILOTS ONLINE: 377    ATC ONLINE: 70

NFFN

Nadi International Airport

Location

IATA NAN
City Nadi
Country  Fiji
Latitude 17° 45' 19" S
Longitude 177° 26' 34" E
Elevation 59 ft
Type Medium Airport

Map

Weather

METAR
2014/10/20 21:00
NFFN 202100Z 11006KT 9999 FEW030 BKN130 29/20 Q1014 NOSIG
TAF
2014/10/20 18:35
TAF NFFN 201617Z 2018/2118 VRB03KT 9999 FEW030 SCT050 BKN100 
      BECMG 2022/2024 30012KT PROB30 
      TEMPO 2103/2106 5000 TSRA BKN016 FEW018CB 
      BECMG 2104/2106 VRB03KT PROB30 
      TEMPO 2112/2118 5000 TSRA BKN016 FEW018CB

Runways

02/20 10739 ft / 150 ft
09/27 7007 ft / 150 ft

Outbound flights

Callsign Flying to Pilot ATD/STD ETA Aircraft

Inbound flights

Callsign Flying from Pilot ATD ETA Aircraft